CheckWX is a tool to help pilots better visualize weather data.  It is not intended as a substitute for an official pre-flight weather briefing.

12:23:16 UTC

KPOC METAR
Brackett Field Airport
La Verne, California, USA
Current

8 hours ago

KPOC 220447Z 00000KT 10SM CLR 03/02 A2971 RMK LAST
Observed
Feb-22 @ 04:47 UTC
Visibility
10 SM
Flight Rules
VFR
Cloud Levels
  • Clear skies
Temperature
C / 37°F
Dewpoint
C / 36°F
Humidity
93%
Altimeter
29.71" Hg
Pressure
1006.12 hPa
Previous

9 hours ago

KPOC 220347Z 08004KT 10SM FEW110 03/01 A2969
Observed
Feb-22 @ 03:47 UTC
Wind
  • 080° at 4 KTS
Visibility
10 SM
Flight Rules
VFR
Cloud Levels
  • Few at 11,000' AGL
Temperature
C / 37°F
Dewpoint
C / 34°F
Humidity
87%
Altimeter
29.69" Hg
Pressure
1005.42 hPa
Previous

10 hours ago

KPOC 220247Z 07004KT 10SM CLR 04/02 A2967
Observed
Feb-22 @ 02:47 UTC
Wind
  • 070° at 4 KTS
Visibility
10 SM
Flight Rules
VFR
Cloud Levels
  • Clear skies
Temperature
C / 39°F
Dewpoint
C / 36°F
Humidity
87%
Altimeter
29.67" Hg
Pressure
1004.72 hPa